sensor_id;sensor_type;location;lat;lon;timestamp;pressure;altitude;pressure_sealevel;temperature;humidity
11001;BME280;5553;48.506;8.870;2022-12-07T00:01:37;96603.75;;;1.37;100.00
11001;BME280;5553;48.506;8.870;2022-12-07T00:04:07;96603.88;;;1.36;100.00
11001;BME280;5553;48.506;8.870;2022-12-07T00:06:38;96613.59;;;1.34;100.00
11001;BME280;5553;48.506;8.870;2022-12-07T00:09:11;96615.09;;;1.36;100.00
11001;BME280;5553;48.506;8.870;2022-12-07T00:11:42;96620.84;;;1.30;100.00
11001;BME280;5553;48.506;8.870;2022-12-07T00:14:12;96614.13;;;1.28;100.00
11001;BME280;5553;48.506;8.870;2022-12-07T00:16:42;96619.44;;;1.26;100.00
11001;BME280;5553;48.506;8.870;2022-12-07T00:19:12;96623.69;;;1.27;100.00
11001;BME280;5553;48.506;8.870;2022-12-07T00:21:41;96618.91;;;1.32;100.00
11001;BME280;5553;48.506;8.870;2022-12-07T00:24:11;96613.31;;;1.27;100.00
11001;BME280;5553;48.506;8.870;2022-12-07T00:26:42;96619.72;;;1.33;100.00
11001;BME280;5553;48.506;8.870;2022-12-07T00:29:14;96608.78;;;1.29;100.00
11001;BME280;5553;48.506;8.870;2022-12-07T00:31:43;96607.03;;;1.39;100.00
11001;BME280;5553;48.506;8.870;2022-12-07T00:34:13;96602.78;;;1.38;100.00
11001;BME280;5553;48.506;8.870;2022-12-07T00:36:42;96602.09;;;1.36;100.00
11001;BME280;5553;48.506;8.870;2022-12-07T00:39:11;96596.50;;;1.41;100.00
11001;BME280;5553;48.506;8.870;2022-12-07T00:41:42;96598.66;;;1.36;100.00
11001;BME280;5553;48.506;8.870;2022-12-07T00:44:10;96604.03;;;1.34;100.00
11001;BME280;5553;48.506;8.870;2022-12-07T00:46:39;96598.81;;;1.34;100.00
11001;BME280;5553;48.506;8.870;2022-12-07T00:49:07;96600.03;;;1.30;100.00
11001;BME280;5553;48.506;8.870;2022-12-07T00:51:36;96595.00;;;1.38;100.00
11001;BME280;5553;48.506;8.870;2022-12-07T00:54:04;96588.81;;;1.39;100.00
11001;BME280;5553;48.506;8.870;2022-12-07T00:56:32;96599.22;;;1.39;100.00
11001;BME280;5553;48.506;8.870;2022-12-07T00:59:04;96594.69;;;1.32;100.00
11001;BME280;5553;48.506;8.870;2022-12-07T01:01:35;96591.94;;;1.33;100.00
11001;BME280;5553;48.506;8.870;2022-12-07T01:04:05;96588.94;;;1.28;100.00
11001;BME280;5553;48.506;8.870;2022-12-07T01:06:33;96585.78;;;1.25;100.00
11001;BME280;5553;48.506;8.870;2022-12-07T01:09:02;96588.38;;;1.25;100.00
11001;BME280;5553;48.506;8.870;2022-12-07T01:11:32;96591.25;;;1.22;100.00
11001;BME280;5553;48.506;8.870;2022-12-07T01:14:01;96600.31;;;1.27;100.00
11001;BME280;5553;48.506;8.870;2022-12-07T01:16:32;96595.09;;;1.27;100.00
11001;BME280;5553;48.506;8.870;2022-12-07T01:19:01;96600.81;;;1.21;100.00
11001;BME280;5553;48.506;8.870;2022-12-07T01:21:31;96598.78;;;1.25;100.00
11001;BME280;5553;48.506;8.870;2022-12-07T01:24:04;96596.31;;;1.23;100.00
11001;BME280;5553;48.506;8.870;2022-12-07T01:26:32;96602.03;;;1.17;100.00
11001;BME280;5553;48.506;8.870;2022-12-07T01:29:01;96604.63;;;1.17;100.00
11001;BME280;5553;48.506;8.870;2022-12-07T01:31:32;96604.38;;;1.20;100.00
11001;BME280;5553;48.506;8.870;2022-12-07T01:34:00;96609.88;;;1.27;100.00
11001;BME280;5553;48.506;8.870;2022-12-07T01:36:30;96610.50;;;1.19;100.00
11001;BME280;5553;48.506;8.870;2022-12-07T01:39:01;96613.09;;;1.19;100.00
11001;BME280;5553;48.506;8.870;2022-12-07T01:41:34;96609.19;;;1.25;100.00
11001;BME280;5553;48.506;8.870;2022-12-07T01:44:16;96609.44;;;1.22;100.00
11001;BME280;5553;48.506;8.870;2022-12-07T01:46:48;96609.03;;;1.26;100.00
11001;BME280;5553;48.506;8.870;2022-12-07T01:49:25;96603.28;;;1.23;100.00
11001;BME280;5553;48.506;8.870;2022-12-07T01:51:58;96611.78;;;1.25;100.00
11001;BME280;5553;48.506;8.870;2022-12-07T01:54:28;96615.91;;;1.27;100.00
11001;BME280;5553;48.506;8.870;2022-12-07T01:56:57;96611.78;;;1.25;100.00
11001;BME280;5553;48.506;8.870;2022-12-07T01:59:27;96613.41;;;1.26;100.00
11001;BME280;5553;48.506;8.870;2022-12-07T02:01:58;96613.41;;;1.26;100.00
11001;BME280;5553;48.506;8.870;2022-12-07T02:04:27;96615.44;;;1.22;100.00
11001;BME280;5553;48.506;8.870;2022-12-07T02:06:55;96620.78;;;1.21;100.00
11001;BME280;5553;48.506;8.870;2022-12-07T02:09:25;96624.06;;;1.23;100.00
11001;BME280;5553;48.506;8.870;2022-12-07T02:11:54;96619.00;;;1.21;100.00
11001;BME280;5553;48.506;8.870;2022-12-07T02:14:23;96627.78;;;1.20;100.00
11001;BME280;5553;48.506;8.870;2022-12-07T02:17:03;96628.44;;;1.22;100.00
11001;BME280;5553;48.506;8.870;2022-12-07T02:19:57;96626.09;;;1.19;100.00
11001;BME280;5553;48.506;8.870;2022-12-07T02:22:47;96627.06;;;1.18;100.00
11001;BME280;5553;48.506;8.870;2022-12-07T02:25:28;96629.41;;;1.21;100.00
11001;BME280;5553;48.506;8.870;2022-12-07T02:28:05;96627.31;;;1.15;100.00
11001;BME280;5553;48.506;8.870;2022-12-07T02:30:42;96625.47;;;1.27;100.00
11001;BME280;5553;48.506;8.870;2022-12-07T02:33:16;96619.06;;;1.31;100.00
11001;BME280;5553;48.506;8.870;2022-12-07T02:35:50;96621.63;;;1.21;100.00
11001;BME280;5553;48.506;8.870;2022-12-07T02:38:26;96621.88;;;1.18;100.00
11001;BME280;5553;48.506;8.870;2022-12-07T02:41:00;96618.59;;;1.26;100.00
11001;BME280;5553;48.506;8.870;2022-12-07T02:43:37;96628.78;;;1.38;100.00
11001;BME280;5553;48.506;8.870;2022-12-07T02:46:12;96631.03;;;1.22;100.00
11001;BME280;5553;48.506;8.870;2022-12-07T02:48:43;96637.31;;;1.19;100.00
11001;BME280;5553;48.506;8.870;2022-12-07T02:51:12;96629.50;;;1.10;100.00
11001;BME280;5553;48.506;8.870;2022-12-07T02:53:42;96624.81;;;1.04;100.00
11001;BME280;5553;48.506;8.870;2022-12-07T02:56:16;96608.72;;;0.89;100.00
11001;BME280;5553;48.506;8.870;2022-12-07T02:58:57;96608.06;;;0.87;100.00
11001;BME280;5553;48.506;8.870;2022-12-07T03:01:39;96586.66;;;0.74;100.00
11001;BME280;5553;48.506;8.870;2022-12-07T03:04:20;96588.69;;;0.70;100.00
11001;BME280;5553;48.506;8.870;2022-12-07T03:07:00;96568.16;;;0.67;100.00
11001;BME280;5553;48.506;8.870;2022-12-07T03:09:37;96574.19;;;0.46;100.00
11001;BME280;5553;48.506;8.870;2022-12-07T03:12:15;96573.47;;;0.44;100.00
11001;BME280;5553;48.506;8.870;2022-12-07T03:14:49;96568.75;;;0.50;100.00
11001;BME280;5553;48.506;8.870;2022-12-07T03:17:24;96573.22;;;0.47;100.00
11001;BME280;5553;48.506;8.870;2022-12-07T03:19:58;96569.63;;;0.39;100.00
11001;BME280;5553;48.506;8.870;2022-12-07T03:22:29;96560.78;;;0.41;100.00
11001;BME280;5553;48.506;8.870;2022-12-07T03:25:03;96567.69;;;0.52;100.00
11001;BME280;5553;48.506;8.870;2022-12-07T03:27:35;96554.69;;;0.31;100.00
11001;BME280;5553;48.506;8.870;2022-12-07T03:30:07;96563.16;;;0.12;100.00
11001;BME280;5553;48.506;8.870;2022-12-07T03:32:43;96567.97;;;0.17;100.00
11001;BME280;5553;48.506;8.870;2022-12-07T03:35:17;96575.00;;;0.26;100.00
11001;BME280;5553;48.506;8.870;2022-12-07T03:37:50;96567.47;;;0.23;100.00
11001;BME280;5553;48.506;8.870;2022-12-07T03:40:25;96564.94;;;0.12;100.00
11001;BME280;5553;48.506;8.870;2022-12-07T03:42:55;96559.81;;;0.21;100.00
11001;BME280;5553;48.506;8.870;2022-12-07T03:45:30;96565.44;;;0.06;100.00
11001;BME280;5553;48.506;8.870;2022-12-07T03:48:06;96564.75;;;0.04;100.00
11001;BME280;5553;48.506;8.870;2022-12-07T03:50:42;96566.00;;;0.09;100.00
11001;BME280;5553;48.506;8.870;2022-12-07T03:53:15;96566.38;;;0.05;100.00
11001;BME280;5553;48.506;8.870;2022-12-07T03:55:46;96566.25;;;0.06;100.00
11001;BME280;5553;48.506;8.870;2022-12-07T03:58:19;96573.69;;;0.11;100.00
11001;BME280;5553;48.506;8.870;2022-12-07T04:00:50;96573.69;;;0.11;100.00
11001;BME280;5553;48.506;8.870;2022-12-07T04:03:21;96576.06;;;0.03;100.00
11001;BME280;5553;48.506;8.870;2022-12-07T04:05:49;96579.13;;;0.08;100.00
11001;BME280;5553;48.506;8.870;2022-12-07T04:08:18;96579.13;;;0.08;100.00
11001;BME280;5553;48.506;8.870;2022-12-07T04:10:46;96582.63;;;0.07;100.00
11001;BME280;5553;48.506;8.870;2022-12-07T04:13:15;96575.31;;;0.12;100.00
11001;BME280;5553;48.506;8.870;2022-12-07T04:15:43;96577.78;;;0.13;100.00
11001;BME280;5553;48.506;8.870;2022-12-07T04:18:11;96582.84;;;0.15;100.00
11001;BME280;5553;48.506;8.870;2022-12-07T04:20:42;96571.91;;;0.32;100.00
11001;BME280;5553;48.506;8.870;2022-12-07T04:23:11;96570.19;;;0.21;100.00
11001;BME280;5553;48.506;8.870;2022-12-07T04:25:40;96564.13;;;0.32;100.00
11001;BME280;5553;48.506;8.870;2022-12-07T04:28:08;96562.28;;;0.23;100.00
11001;BME280;5553;48.506;8.870;2022-12-07T04:30:37;96556.75;;;0.16;100.00
11001;BME280;5553;48.506;8.870;2022-12-07T04:33:05;96559.19;;;0.08;100.00
11001;BME280;5553;48.506;8.870;2022-12-07T04:35:34;96563.72;;;0.16;100.00
11001;BME280;5553;48.506;8.870;2022-12-07T04:38:04;96569.88;;;0.15;100.00
11001;BME280;5553;48.506;8.870;2022-12-07T04:40:33;96560.31;;;0.15;100.00
11001;BME280;5553;48.506;8.870;2022-12-07T04:43:01;96557.88;;;0.14;100.00
11001;BME280;5553;48.506;8.870;2022-12-07T04:45:30;96568.94;;;0.16;100.00
11001;BME280;5553;48.506;8.870;2022-12-07T04:47:58;96564.28;;;-0.02;100.00
11001;BME280;5553;48.506;8.870;2022-12-07T04:50:26;96573.59;;;0.01;100.00
11001;BME280;5553;48.506;8.870;2022-12-07T04:52:55;96566.16;;;-0.04;100.00
11001;BME280;5553;48.506;8.870;2022-12-07T04:55:26;96568.31;;;-0.09;100.00
11001;BME280;5553;48.506;8.870;2022-12-07T04:57:54;96576.19;;;0.01;100.00
11001;BME280;5553;48.506;8.870;2022-12-07T05:00:22;96563.28;;;-0.10;100.00
11001;BME280;5553;48.506;8.870;2022-12-07T05:02:51;96566.72;;;-0.21;100.00
11001;BME280;5553;48.506;8.870;2022-12-07T05:05:19;96564.09;;;-0.10;100.00
11001;BME280;5553;48.506;8.870;2022-12-07T05:07:47;96566.22;;;-0.15;100.00
11001;BME280;5553;48.506;8.870;2022-12-07T05:10:16;96570.25;;;-0.22;100.00
11001;BME280;5553;48.506;8.870;2022-12-07T05:12:47;96578.03;;;-0.22;100.00
11001;BME280;5553;48.506;8.870;2022-12-07T05:15:16;96579.75;;;-0.11;100.00
11001;BME280;5553;48.506;8.870;2022-12-07T05:17:44;96571.97;;;-0.11;100.00
11001;BME280;5553;48.506;8.870;2022-12-07T05:20:12;96562.22;;;-0.19;100.00
11001;BME280;5553;48.506;8.870;2022-12-07T05:22:41;96564.63;;;-0.27;100.00
11001;BME280;5553;48.506;8.870;2022-12-07T05:25:09;96568.72;;;-0.25;100.00
11001;BME280;5553;48.506;8.870;2022-12-07T05:27:37;96571.94;;;-0.32;100.00
11001;BME280;5553;48.506;8.870;2022-12-07T05:30:10;96570.97;;;-0.31;100.00
11001;BME280;5553;48.506;8.870;2022-12-07T05:32:38;96568.31;;;-0.41;100.00
11001;BME280;5553;48.506;8.870;2022-12-07T05:35:07;96576.69;;;-0.49;100.00
11001;BME280;5553;48.506;8.870;2022-12-07T05:37:36;96571.41;;;-0.47;100.00
11001;BME280;5553;48.506;8.870;2022-12-07T05:40:05;96583.78;;;-0.51;100.00
11001;BME280;5553;48.506;8.870;2022-12-07T05:42:34;96584.84;;;-0.53;100.00
11001;BME280;5553;48.506;8.870;2022-12-07T05:45:00;96581.19;;;-0.62;100.00
11001;BME280;5553;48.506;8.870;2022-12-07T05:47:31;96582.97;;;-0.74;100.00
11001;BME280;5553;48.506;8.870;2022-12-07T05:49:59;96582.97;;;-0.74;100.00
11001;BME280;5553;48.506;8.870;2022-12-07T05:52:27;96574.03;;;-0.81;100.00
11001;BME280;5553;48.506;8.870;2022-12-07T05:54:56;96582.06;;;-0.84;100.00
11001;BME280;5553;48.506;8.870;2022-12-07T05:57:24;96579.69;;;-0.87;100.00
11001;BME280;5553;48.506;8.870;2022-12-07T05:59:53;96579.25;;;-0.92;100.00
11001;BME280;5553;48.506;8.870;2022-12-07T06:02:18;96580.75;;;-1.01;100.00
11001;BME280;5553;48.506;8.870;2022-12-07T06:04:49;96586.66;;;-0.99;100.00
11001;BME280;5553;48.506;8.870;2022-12-07T06:07:17;96598.19;;;-1.14;100.00
11001;BME280;5553;48.506;8.870;2022-12-07T06:09:46;96607.13;;;-1.18;100.00
11001;BME280;5553;48.506;8.870;2022-12-07T06:12:14;96600.28;;;-1.30;100.00
11001;BME280;5553;48.506;8.870;2022-12-07T06:14:55;96609.22;;;-1.23;100.00
11001;BME280;5553;48.506;8.870;2022-12-07T06:17:24;96605.00;;;-1.13;100.00
11001;BME280;5553;48.506;8.870;2022-12-07T06:19:55;96619.75;;;-1.02;100.00
11001;BME280;5553;48.506;8.870;2022-12-07T06:22:23;96617.25;;;-1.26;100.00
11001;BME280;5553;48.506;8.870;2022-12-07T06:24:52;96619.50;;;-0.99;100.00
11001;BME280;5553;48.506;8.870;2022-12-07T06:27:20;96627.03;;;-0.96;100.00
11001;BME280;5553;48.506;8.870;2022-12-07T06:29:48;96630.47;;;-0.96;100.00
11001;BME280;5553;48.506;8.870;2022-12-07T06:32:17;96624.66;;;-1.10;100.00
11001;BME280;5553;48.506;8.870;2022-12-07T06:34:45;96629.50;;;-1.06;100.00
11001;BME280;5553;48.506;8.870;2022-12-07T06:37:17;96629.72;;;-1.20;100.00
11001;BME280;5553;48.506;8.870;2022-12-07T06:39:45;96636.78;;;-1.22;100.00
11001;BME280;5553;48.506;8.870;2022-12-07T06:42:13;96645.59;;;-1.25;100.00
11001;BME280;5553;48.506;8.870;2022-12-07T06:44:42;96648.06;;;-1.23;100.00
11001;BME280;5553;48.506;8.870;2022-12-07T06:47:10;96647.50;;;-1.15;100.00
11001;BME280;5553;48.506;8.870;2022-12-07T06:49:39;96652.56;;;-1.14;100.00
11001;BME280;5553;48.506;8.870;2022-12-07T06:52:07;96647.81;;;-1.31;100.00
11001;BME280;5553;48.506;8.870;2022-12-07T06:54:38;96649.97;;;-1.25;100.00
11001;BME280;5553;48.506;8.870;2022-12-07T06:57:07;96655.28;;;-1.15;100.00
11001;BME280;5553;48.506;8.870;2022-12-07T06:59:35;96662.78;;;-1.24;100.00
11001;BME280;5553;48.506;8.870;2022-12-07T07:02:03;96657.72;;;-1.25;100.00
11001;BME280;5553;48.506;8.870;2022-12-07T07:04:32;96660.41;;;-1.27;100.00
11001;BME280;5553;48.506;8.870;2022-12-07T07:07:00;96670.31;;;-1.21;100.00
11001;BME280;5553;48.506;8.870;2022-12-07T07:09:29;96675.16;;;-1.16;100.00
11001;BME280;5553;48.506;8.870;2022-12-07T07:12:00;96683.03;;;-1.17;100.00
11001;BME280;5553;48.506;8.870;2022-12-07T07:14:28;96680.34;;;-1.16;100.00
11001;BME280;5553;48.506;8.870;2022-12-07T07:16:56;96684.59;;;-1.15;100.00
11001;BME280;5553;48.506;8.870;2022-12-07T07:19:25;96692.56;;;-1.18;100.00
11001;BME280;5553;48.506;8.870;2022-12-07T07:21:53;96686.44;;;-1.17;100.00
11001;BME280;5553;48.506;8.870;2022-12-07T07:24:21;96685.53;;;-1.16;100.00
11001;BME280;5553;48.506;8.870;2022-12-07T07:26:50;96684.94;;;-1.20;100.00
11001;BME280;5553;48.506;8.870;2022-12-07T07:29:21;96684.59;;;-1.15;100.00
11001;BME280;5553;48.506;8.870;2022-12-07T07:31:49;96682.34;;;-1.20;100.00
11001;BME280;5553;48.506;8.870;2022-12-07T07:34:18;96690.13;;;-1.08;100.00
11001;BME280;5553;48.506;8.870;2022-12-07T07:36:46;96689.69;;;-1.02;100.00
11001;BME280;5553;48.506;8.870;2022-12-07T07:39:14;96691.19;;;-1.00;100.00
11001;BME280;5553;48.506;8.870;2022-12-07T07:41:43;96687.69;;;-0.99;100.00
11001;BME280;5553;48.506;8.870;2022-12-07T07:44:11;96690.59;;;-1.03;100.00
11001;BME280;5553;48.506;8.870;2022-12-07T07:46:42;96700.41;;;-0.96;100.00
11001;BME280;5553;48.506;8.870;2022-12-07T07:49:10;96701.81;;;-0.91;100.00
11001;BME280;5553;48.506;8.870;2022-12-07T07:51:39;96705.22;;;-0.91;100.00
11001;BME280;5553;48.506;8.870;2022-12-07T07:54:07;96699.81;;;-0.88;100.00
11001;BME280;5553;48.506;8.870;2022-12-07T07:56:35;96703.94;;;-0.85;100.00
11001;BME280;5553;48.506;8.870;2022-12-07T07:59:04;96699.72;;;-0.75;100.00
11001;BME280;5553;48.506;8.870;2022-12-07T08:01:32;96702.78;;;-0.70;100.00
11001;BME280;5553;48.506;8.870;2022-12-07T08:04:03;96703.94;;;-0.63;100.00
11001;BME280;5553;48.506;8.870;2022-12-07T08:06:32;96703.34;;;-0.55;100.00
11001;BME280;5553;48.506;8.870;2022-12-07T08:09:00;96700.53;;;-0.52;100.00
11001;BME280;5553;48.506;8.870;2022-12-07T08:11:31;96691.69;;;-0.50;100.00
11001;BME280;5553;48.506;8.870;2022-12-07T08:13:59;96696.06;;;-0.39;100.00
11001;BME280;5553;48.506;8.870;2022-12-07T08:16:28;96682.72;;;-0.34;100.00
11001;BME280;5553;48.506;8.870;2022-12-07T08:18:56;96677.66;;;-0.36;100.00
11001;BME280;5553;48.506;8.870;2022-12-07T08:21:27;96673.06;;;-0.32;100.00
11001;BME280;5553;48.506;8.870;2022-12-07T08:23:56;96672.34;;;-0.34;100.00
11001;BME280;5553;48.506;8.870;2022-12-07T08:26:25;96671.28;;;-0.32;100.00
11001;BME280;5553;48.506;8.870;2022-12-07T08:28:53;96671.88;;;-0.28;100.00
11001;BME280;5553;48.506;8.870;2022-12-07T08:31:22;96673.28;;;-0.24;100.00
11001;BME280;5553;48.506;8.870;2022-12-07T08:33:50;96661.25;;;-0.25;100.00
11001;BME280;5553;48.506;8.870;2022-12-07T08:36:18;96672.59;;;-0.26;100.00
11001;BME280;5553;48.506;8.870;2022-12-07T08:38:50;96674.81;;;-0.21;100.00
11001;BME280;5553;48.506;8.870;2022-12-07T08:41:19;96671.41;;;-0.22;100.00
11001;BME280;5553;48.506;8.870;2022-12-07T08:43:47;96659.97;;;-0.19;100.00
11001;BME280;5553;48.506;8.870;2022-12-07T08:46:19;96652.63;;;-0.14;100.00
11001;BME280;5553;48.506;8.870;2022-12-07T08:48:54;96643.56;;;-0.09;100.00
11001;BME280;5553;48.506;8.870;2022-12-07T08:51:24;96640.81;;;-0.07;100.00
11001;BME280;5553;48.506;8.870;2022-12-07T08:53:56;96634.09;;;0.02;100.00
11001;BME280;5553;48.506;8.870;2022-12-07T08:56:27;96633.72;;;0.06;100.00
11001;BME280;5553;48.506;8.870;2022-12-07T08:58:55;96632.72;;;0.18;100.00
11001;BME280;5553;48.506;8.870;2022-12-07T09:01:24;96634.69;;;0.26;100.00
11001;BME280;5553;48.506;8.870;2022-12-07T09:03:52;96632.25;;;0.45;100.00
11001;BME280;5553;48.506;8.870;2022-12-07T09:06:20;96620.59;;;0.40;100.00
11001;BME280;5553;48.506;8.870;2022-12-07T09:08:51;96606.09;;;0.37;100.00
11001;BME280;5553;48.506;8.870;2022-12-07T09:11:24;96599.34;;;0.46;100.00
11001;BME280;5553;48.506;8.870;2022-12-07T09:13:52;96600.41;;;0.43;100.00
11001;BME280;5553;48.506;8.870;2022-12-07T09:16:20;96594.22;;;0.56;100.00
11001;BME280;5553;48.506;8.870;2022-12-07T09:18:49;96592.75;;;0.63;100.00
11001;BME280;5553;48.506;8.870;2022-12-07T09:21:17;96591.03;;;0.73;100.00
11001;BME280;5553;48.506;8.870;2022-12-07T09:23:46;96584.09;;;0.83;100.00
11001;BME280;5553;48.506;8.870;2022-12-07T09:26:14;96581.97;;;0.67;100.00
11001;BME280;5553;48.506;8.870;2022-12-07T09:28:45;96564.19;;;0.63;100.00
11001;BME280;5553;48.506;8.870;2022-12-07T09:31:13;96567.44;;;0.65;100.00
11001;BME280;5553;48.506;8.870;2022-12-07T09:33:42;96566.94;;;0.71;100.00
11001;BME280;5553;48.506;8.870;2022-12-07T09:36:10;96572.19;;;0.81;100.00
11001;BME280;5553;48.506;8.870;2022-12-07T09:38:38;96555.84;;;0.90;100.00
11001;BME280;5553;48.506;8.870;2022-12-07T09:41:07;96558.47;;;1.00;100.00
11001;BME280;5553;48.506;8.870;2022-12-07T09:43:36;96556.03;;;1.08;100.00
11001;BME280;5553;48.506;8.870;2022-12-07T09:46:13;96541.41;;;1.07;100.00
11001;BME280;5553;48.506;8.870;2022-12-07T09:48:43;96536.22;;;1.07;100.00
11001;BME280;5553;48.506;8.870;2022-12-07T09:51:15;96534.94;;;1.01;100.00
11001;BME280;5553;48.506;8.870;2022-12-07T09:53:45;96534.84;;;1.12;100.00
11001;BME280;5553;48.506;8.870;2022-12-07T09:56:16;96522.41;;;1.06;100.00
11001;BME280;5553;48.506;8.870;2022-12-07T09:58:46;96519.41;;;1.11;100.00
11001;BME280;5553;48.506;8.870;2022-12-07T10:01:19;96517.66;;;1.21;100.00
11001;BME280;5553;48.506;8.870;2022-12-07T10:03:50;96516.72;;;1.32;100.00
11001;BME280;5553;48.506;8.870;2022-12-07T10:06:19;96514.34;;;1.19;100.00
11001;BME280;5553;48.506;8.870;2022-12-07T10:08:48;96503.72;;;1.41;100.00
11001;BME280;5553;48.506;8.870;2022-12-07T10:11:16;96499.38;;;1.52;100.00
11001;BME280;5553;48.506;8.870;2022-12-07T10:13:46;96498.00;;;1.57;100.00
11001;BME280;5553;48.506;8.870;2022-12-07T10:16:41;96483.22;;;1.58;100.00
11001;BME280;5553;48.506;8.870;2022-12-07T10:19:22;96486.66;;;1.68;100.00
11001;BME280;5553;48.506;8.870;2022-12-07T10:22:05;96470.63;;;1.82;100.00
11001;BME280;5553;48.506;8.870;2022-12-07T10:24:37;96485.13;;;1.75;100.00
11001;BME280;5553;48.506;8.870;2022-12-07T10:27:18;96478.81;;;1.97;100.00
11001;BME280;5553;48.506;8.870;2022-12-07T10:29:48;96475.56;;;1.85;100.00
11001;BME280;5553;48.506;8.870;2022-12-07T10:32:32;96488.13;;;2.00;100.00
11001;BME280;5553;48.506;8.870;2022-12-07T10:35:20;96469.22;;;1.88;100.00
11001;BME280;5553;48.506;8.870;2022-12-07T10:37:49;96480.06;;;2.03;100.00
11001;BME280;5553;48.506;8.870;2022-12-07T10:40:32;96465.81;;;1.87;100.00
11001;BME280;5553;48.506;8.870;2022-12-07T10:43:04;96458.69;;;1.89;100.00
11001;BME280;5553;48.506;8.870;2022-12-07T10:45:34;96458.00;;;2.07;100.00
11001;BME280;5553;48.506;8.870;2022-12-07T10:48:09;96450.97;;;2.17;100.00
11001;BME280;5553;48.506;8.870;2022-12-07T10:50:49;96447.38;;;2.37;100.00
11001;BME280;5553;48.506;8.870;2022-12-07T10:53:32;96442.72;;;2.31;100.00
11001;BME280;5553;48.506;8.870;2022-12-07T10:56:29;96441.53;;;2.26;100.00
11001;BME280;5553;48.506;8.870;2022-12-07T10:59:19;96428.13;;;2.48;100.00
11001;BME280;5553;48.506;8.870;2022-12-07T11:01:57;96429.47;;;2.52;100.00
11001;BME280;5553;48.506;8.870;2022-12-07T11:04:35;96424.19;;;2.44;100.00
11001;BME280;5553;48.506;8.870;2022-12-07T11:07:13;96423.09;;;2.74;100.00
11001;BME280;5553;48.506;8.870;2022-12-07T11:09:55;96427.56;;;2.82;100.00
11001;BME280;5553;48.506;8.870;2022-12-07T11:12:36;96429.25;;;2.73;100.00
11001;BME280;5553;48.506;8.870;2022-12-07T11:15:15;96416.81;;;2.67;100.00
11001;BME280;5553;48.506;8.870;2022-12-07T11:17:49;96414.03;;;2.78;100.00
11001;BME280;5553;48.506;8.870;2022-12-07T11:20:37;96407.84;;;2.79;100.00
11001;BME280;5553;48.506;8.870;2022-12-07T11:23:16;96403.31;;;2.81;100.00
11001;BME280;5553;48.506;8.870;2022-12-07T11:25:54;96408.22;;;2.84;100.00
11001;BME280;5553;48.506;8.870;2022-12-07T11:28:35;96403.69;;;2.87;100.00
11001;BME280;5553;48.506;8.870;2022-12-07T11:31:13;96398.38;;;2.78;100.00
11001;BME280;5553;48.506;8.870;2022-12-07T11:33:50;96388.66;;;2.80;100.00
11001;BME280;5553;48.506;8.870;2022-12-07T11:36:35;96388.25;;;2.75;100.00
11001;BME280;5553;48.506;8.870;2022-12-07T11:39:15;96389.47;;;2.81;100.00
11001;BME280;5553;48.506;8.870;2022-12-07T11:41:48;96380.78;;;3.08;100.00
11001;BME280;5553;48.506;8.870;2022-12-07T11:44:27;96372.88;;;3.00;100.00
11001;BME280;5553;48.506;8.870;2022-12-07T11:47:05;96374.53;;;3.01;100.00
11001;BME280;5553;48.506;8.870;2022-12-07T11:49:42;96375.19;;;3.03;100.00
11001;BME280;5553;48.506;8.870;2022-12-07T11:52:20;96371.31;;;2.89;100.00
11001;BME280;5553;48.506;8.870;2022-12-07T11:54:52;96370.72;;;2.95;100.00
11001;BME280;5553;48.506;8.870;2022-12-07T11:57:25;96363.56;;;2.97;100.00
11001;BME280;5553;48.506;8.870;2022-12-07T11:59:59;96362.75;;;2.97;100.00
11001;BME280;5553;48.506;8.870;2022-12-07T12:02:33;96358.56;;;3.04;100.00
11001;BME280;5553;48.506;8.870;2022-12-07T12:05:12;96351.06;;;3.19;100.00
11001;BME280;5553;48.506;8.870;2022-12-07T12:07:44;96345.69;;;3.20;100.00
11001;BME280;5553;48.506;8.870;2022-12-07T12:10:19;96343.38;;;3.17;100.00
11001;BME280;5553;48.506;8.870;2022-12-07T12:15:51;96340.72;;;3.09;100.00
11001;BME280;5553;48.506;8.870;2022-12-07T12:18:37;96339.38;;;3.05;100.00
11001;BME280;5553;48.506;8.870;2022-12-07T12:21:09;96334.84;;;3.25;100.00
11001;BME280;5553;48.506;8.870;2022-12-07T12:23:44;96329.75;;;3.23;100.00
11001;BME280;5553;48.506;8.870;2022-12-07T12:26:18;96332.31;;;3.15;100.00
11001;BME280;5553;48.506;8.870;2022-12-07T12:28:53;96326.41;;;3.13;100.00
11001;BME280;5553;48.506;8.870;2022-12-07T12:31:36;96327.22;;;3.14;100.00
11001;BME280;5553;48.506;8.870;2022-12-07T12:34:31;96320.09;;;3.16;100.00
11001;BME280;5553;48.506;8.870;2022-12-07T12:37:00;96320.13;;;3.24;100.00
11001;BME280;5553;48.506;8.870;2022-12-07T12:39:31;96323.25;;;3.27;100.00
11001;BME280;5553;48.506;8.870;2022-12-07T12:42:00;96327.16;;;3.23;100.00
11001;BME280;5553;48.506;8.870;2022-12-07T12:50:31;96311.81;;;3.20;100.00
11001;BME280;5553;48.506;8.870;2022-12-07T12:53:16;96308.53;;;3.18;100.00
11001;BME280;5553;48.506;8.870;2022-12-07T13:02:16;96307.34;;;3.13;100.00
11001;BME280;5553;48.506;8.870;2022-12-07T13:04:51;96301.38;;;3.20;100.00
11001;BME280;5553;48.506;8.870;2022-12-07T13:10:35;96291.03;;;3.28;100.00
11001;BME280;5553;48.506;8.870;2022-12-07T13:13:34;96299.59;;;3.39;100.00
11001;BME280;5553;48.506;8.870;2022-12-07T13:16:38;96290.13;;;3.20;100.00
11001;BME280;5553;48.506;8.870;2022-12-07T13:25:07;96290.06;;;3.12;100.00
11001;BME280;5553;48.506;8.870;2022-12-07T13:27:39;96289.16;;;3.03;100.00
11001;BME280;5553;48.506;8.870;2022-12-07T13:30:17;96289.69;;;3.06;100.00
11001;BME280;5553;48.506;8.870;2022-12-07T13:32:51;96279.84;;;3.00;100.00
11001;BME280;5553;48.506;8.870;2022-12-07T13:35:32;96283.31;;;3.01;100.00
11001;BME280;5553;48.506;8.870;2022-12-07T13:38:05;96282.03;;;3.05;100.00
11001;BME280;5553;48.506;8.870;2022-12-07T13:40:34;96284.63;;;3.05;100.00
11001;BME280;5553;48.506;8.870;2022-12-07T13:43:04;96288.06;;;3.05;100.00
11001;BME280;5553;48.506;8.870;2022-12-07T13:45:43;96281.66;;;3.00;100.00
11001;BME280;5553;48.506;8.870;2022-12-07T13:48:24;96275.56;;;2.91;100.00
11001;BME280;5553;48.506;8.870;2022-12-07T13:50:57;96276.06;;;2.95;100.00
11001;BME280;5553;48.506;8.870;2022-12-07T13:53:26;96285.81;;;2.93;100.00
11001;BME280;5553;48.506;8.870;2022-12-07T13:55:56;96276.97;;;2.85;100.00
11001;BME280;5553;48.506;8.870;2022-12-07T13:58:27;96285.47;;;2.88;100.00